Gold Bridge, Canada
Current Conditions -  °F | °C
As of 4:00 AM on Monday 26 Jan 2015 (Local Time) from CYIN Reporting Station
Clear Clear  
Wind Chill: 32°   Ceiling: Unl
Heat Index: 39°   Visibility: 9mi
Dew Point: 27°   Wind: 12mph
Humidity: 61%   Direction: 130°SE
Pressure: 29.92"   Gusts: NA
Location:  50.85°N, 122.85°W
Report Text: CYIN 261200Z AUTO 13010KT 9SM CLR 04/M03 A2992 RMK SLP148
Loading
Personal Weather Stations






























Interactive Weather Map New forecast layout! Learn more

10-Day Weather Forecast

Advertisements
Track Severe Weather on mobile